sensor_id;sensor_type;location;lat;lon;timestamp;pressure;altitude;pressure_sealevel;temperature;humidity
76095;BME280;64821;13.710;100.604;2023-06-26T00:00:35;100704.13;;;35.44;39.20
76095;BME280;64821;13.710;100.604;2023-06-26T00:01:39;100705.94;;;35.40;39.27
76095;BME280;64821;13.710;100.604;2023-06-26T00:02:43;100695.50;;;35.33;39.17
76095;BME280;64821;13.710;100.604;2023-06-26T00:03:47;100705.59;;;35.41;38.96
76095;BME280;64821;13.710;100.604;2023-06-26T00:04:51;100713.75;;;35.50;39.23
76095;BME280;64821;13.710;100.604;2023-06-26T00:05:54;100714.69;;;35.54;39.17
76095;BME280;64821;13.710;100.604;2023-06-26T00:06:58;100714.91;;;35.49;39.15
76095;BME280;64821;13.710;100.604;2023-06-26T00:08:02;100719.25;;;35.50;38.57
76095;BME280;64821;13.710;100.604;2023-06-26T00:09:05;100712.94;;;35.49;39.41
76095;BME280;64821;13.710;100.604;2023-06-26T00:10:09;100714.22;;;35.52;39.14
76095;BME280;64821;13.710;100.604;2023-06-26T00:11:15;100715.03;;;35.52;39.72
76095;BME280;64821;13.710;100.604;2023-06-26T00:12:18;100719.81;;;35.55;38.97
76095;BME280;64821;13.710;100.604;2023-06-26T00:13:23;100727.31;;;35.55;39.17
76095;BME280;64821;13.710;100.604;2023-06-26T00:14:27;100730.50;;;35.57;38.52
76095;BME280;64821;13.710;100.604;2023-06-26T00:15:31;100719.50;;;35.57;38.74
76095;BME280;64821;13.710;100.604;2023-06-26T00:16:35;100724.91;;;35.53;38.55
76095;BME280;64821;13.710;100.604;2023-06-26T00:17:39;100722.69;;;35.47;39.08
76095;BME280;64821;13.710;100.604;2023-06-26T00:18:42;100721.34;;;35.53;39.11
76095;BME280;64821;13.710;100.604;2023-06-26T00:19:46;100722.47;;;35.52;39.26
76095;BME280;64821;13.710;100.604;2023-06-26T00:20:50;100714.00;;;35.45;38.70
76095;BME280;64821;13.710;100.604;2023-06-26T00:21:54;100727.66;;;35.53;39.00
76095;BME280;64821;13.710;100.604;2023-06-26T00:22:57;100726.13;;;35.56;38.95
76095;BME280;64821;13.710;100.604;2023-06-26T00:24:01;100728.56;;;35.57;38.96
76095;BME280;64821;13.710;100.604;2023-06-26T00:25:05;100731.09;;;35.63;38.72
76095;BME280;64821;13.710;100.604;2023-06-26T00:26:09;100724.06;;;35.65;38.32
76095;BME280;64821;13.710;100.604;2023-06-26T00:27:14;100726.84;;;35.65;38.76
76095;BME280;64821;13.710;100.604;2023-06-26T00:28:18;100717.88;;;35.56;38.52
76095;BME280;64821;13.710;100.604;2023-06-26T00:29:22;100724.53;;;35.67;38.77
76095;BME280;64821;13.710;100.604;2023-06-26T00:30:25;100716.63;;;35.53;39.04
76095;BME280;64821;13.710;100.604;2023-06-26T00:31:29;100726.06;;;35.65;38.73
76095;BME280;64821;13.710;100.604;2023-06-26T00:32:33;100717.31;;;35.63;38.42
76095;BME280;64821;13.710;100.604;2023-06-26T00:33:37;100723.97;;;35.61;38.93
76095;BME280;64821;13.710;100.604;2023-06-26T00:34:40;100721.56;;;35.60;38.67
76095;BME280;64821;13.710;100.604;2023-06-26T00:35:44;100725.47;;;35.59;38.73
76095;BME280;64821;13.710;100.604;2023-06-26T00:36:47;100689.88;;;35.42;38.75
76095;BME280;64821;13.710;100.604;2023-06-26T00:37:51;100728.56;;;35.70;38.44
76095;BME280;64821;13.710;100.604;2023-06-26T00:38:55;100728.00;;;35.64;38.39
76095;BME280;64821;13.710;100.604;2023-06-26T00:39:59;100727.19;;;35.64;38.76
76095;BME280;64821;13.710;100.604;2023-06-26T00:41:02;100727.53;;;35.62;38.74
76095;BME280;64821;13.710;100.604;2023-06-26T00:42:07;100732.00;;;35.67;38.41
76095;BME280;64821;13.710;100.604;2023-06-26T00:43:13;100732.47;;;35.69;39.02
76095;BME280;64821;13.710;100.604;2023-06-26T00:44:16;100736.03;;;35.69;38.32
76095;BME280;64821;13.710;100.604;2023-06-26T00:45:20;100728.34;;;35.63;38.70
76095;BME280;64821;13.710;100.604;2023-06-26T00:46:39;100746.84;;;35.62;39.16
76095;BME280;64821;13.710;100.604;2023-06-26T00:47:43;100736.72;;;35.66;38.61
76095;BME280;64821;13.710;100.604;2023-06-26T00:48:48;100736.72;;;35.66;38.69
76095;BME280;64821;13.710;100.604;2023-06-26T00:49:52;100734.31;;;35.65;38.34
76095;BME280;64821;13.710;100.604;2023-06-26T00:50:55;100745.34;;;35.65;39.11
76095;BME280;64821;13.710;100.604;2023-06-26T00:51:59;100737.75;;;35.61;39.12
76095;BME280;64821;13.710;100.604;2023-06-26T00:53:03;100726.50;;;35.54;39.00
76095;BME280;64821;13.710;100.604;2023-06-26T00:54:07;100733.50;;;35.52;39.10
76095;BME280;64821;13.710;100.604;2023-06-26T00:55:11;100739.03;;;35.64;39.14
76095;BME280;64821;13.710;100.604;2023-06-26T00:56:15;100742.34;;;35.70;38.62
76095;BME280;64821;13.710;100.604;2023-06-26T00:57:20;100741.88;;;35.68;38.53
76095;BME280;64821;13.710;100.604;2023-06-26T00:58:26;100734.31;;;35.65;38.62
76095;BME280;64821;13.710;100.604;2023-06-26T00:59:30;100735.09;;;35.65;38.74
76095;BME280;64821;13.710;100.604;2023-06-26T01:00:34;100743.13;;;35.58;39.04
76095;BME280;64821;13.710;100.604;2023-06-26T01:01:38;100748.31;;;35.59;38.80
76095;BME280;64821;13.710;100.604;2023-06-26T01:02:42;100739.13;;;35.55;38.76
76095;BME280;64821;13.710;100.604;2023-06-26T01:03:46;100740.84;;;35.60;39.17
76095;BME280;64821;13.710;100.604;2023-06-26T01:04:52;100751.88;;;35.60;38.45
76095;BME280;64821;13.710;100.604;2023-06-26T01:05:57;100753.25;;;35.54;39.14
76095;BME280;64821;13.710;100.604;2023-06-26T01:07:02;100750.72;;;35.49;39.04
76095;BME280;64821;13.710;100.604;2023-06-26T01:08:08;100745.56;;;35.59;38.70
76095;BME280;64821;13.710;100.604;2023-06-26T01:09:12;100748.88;;;35.65;38.63
76095;BME280;64821;13.710;100.604;2023-06-26T01:10:16;100729.81;;;35.48;38.74
76095;BME280;64821;13.710;100.604;2023-06-26T01:11:20;100743.28;;;35.61;38.80
76095;BME280;64821;13.710;100.604;2023-06-26T01:12:24;100753.63;;;35.65;38.99
76095;BME280;64821;13.710;100.604;2023-06-26T01:13:33;100760.38;;;35.67;38.60
76095;BME280;64821;13.710;100.604;2023-06-26T01:14:38;100753.03;;;35.71;38.74
76095;BME280;64821;13.710;100.604;2023-06-26T01:15:41;100760.50;;;35.71;38.60
76095;BME280;64821;13.710;100.604;2023-06-26T01:16:45;100728.69;;;35.61;38.36
76095;BME280;64821;13.710;100.604;2023-06-26T01:17:51;100729.50;;;35.61;38.52
76095;BME280;64821;13.710;100.604;2023-06-26T01:18:55;100752.09;;;35.67;38.85
76095;BME280;64821;13.710;100.604;2023-06-26T01:19:59;100752.72;;;35.73;38.67
76095;BME280;64821;13.710;100.604;2023-06-26T01:21:04;100729.16;;;35.63;38.63
76095;BME280;64821;13.710;100.604;2023-06-26T01:22:16;100760.84;;;35.69;38.17
76095;BME280;64821;13.710;100.604;2023-06-26T01:23:24;100759.03;;;35.73;38.94
76095;BME280;64821;13.710;100.604;2023-06-26T01:24:35;100769.50;;;35.80;38.42
76095;BME280;64821;13.710;100.604;2023-06-26T01:25:45;100748.66;;;35.70;38.10
76095;BME280;64821;13.710;100.604;2023-06-26T01:26:56;100767.75;;;35.87;37.95
76095;BME280;64821;13.710;100.604;2023-06-26T01:28:01;100773.41;;;35.91;38.11
76095;BME280;64821;13.710;100.604;2023-06-26T01:29:06;100770.63;;;35.91;38.26
76095;BME280;64821;13.710;100.604;2023-06-26T01:30:11;100762.03;;;35.92;38.25
76095;BME280;64821;13.710;100.604;2023-06-26T01:31:18;100756.38;;;35.89;37.85
76095;BME280;64821;13.710;100.604;2023-06-26T01:32:23;100758.22;;;35.85;38.62
76095;BME280;64821;13.710;100.604;2023-06-26T01:33:27;100770.28;;;35.92;37.89
76095;BME280;64821;13.710;100.604;2023-06-26T01:34:31;100759.38;;;35.96;37.77
76095;BME280;64821;13.710;100.604;2023-06-26T01:35:35;100769.38;;;36.01;38.03
76095;BME280;64821;13.710;100.604;2023-06-26T01:36:39;100770.63;;;36.03;38.02
76095;BME280;64821;13.710;100.604;2023-06-26T01:37:43;100765.56;;;36.05;37.81
76095;BME280;64821;13.710;100.604;2023-06-26T01:38:47;100780.63;;;36.08;37.89
76095;BME280;64821;13.710;100.604;2023-06-26T01:39:50;100768.78;;;36.07;37.77
76095;BME280;64821;13.710;100.604;2023-06-26T01:40:54;100779.59;;;36.12;37.83
76095;BME280;64821;13.710;100.604;2023-06-26T01:42:00;100780.28;;;36.09;37.79
76095;BME280;64821;13.710;100.604;2023-06-26T01:43:04;100777.19;;;36.11;37.73
76095;BME280;64821;13.710;100.604;2023-06-26T01:44:16;100750.41;;;35.87;38.10
76095;BME280;64821;13.710;100.604;2023-06-26T01:45:24;100747.66;;;35.87;38.00
76095;BME280;64821;13.710;100.604;2023-06-26T01:46:34;100757.78;;;35.83;38.30
76095;BME280;64821;13.710;100.604;2023-06-26T01:47:45;100776.03;;;35.87;38.09
76095;BME280;64821;13.710;100.604;2023-06-26T01:48:59;100777.63;;;35.88;38.15
76095;BME280;64821;13.710;100.604;2023-06-26T01:50:09;100778.66;;;35.96;38.31
76095;BME280;64821;13.710;100.604;2023-06-26T01:51:14;100787.28;;;35.94;38.63
76095;BME280;64821;13.710;100.604;2023-06-26T01:52:24;100760.06;;;35.81;38.83
76095;BME280;64821;13.710;100.604;2023-06-26T01:53:34;100788.31;;;35.90;38.52
76095;BME280;64821;13.710;100.604;2023-06-26T01:54:52;100777.06;;;35.95;37.90
76095;BME280;64821;13.710;100.604;2023-06-26T01:56:00;100780.75;;;35.99;38.02
76095;BME280;64821;13.710;100.604;2023-06-26T01:57:10;100785.66;;;36.06;38.20
76095;BME280;64821;13.710;100.604;2023-06-26T01:58:15;100784.31;;;36.12;37.67
76095;BME280;64821;13.710;100.604;2023-06-26T01:59:19;100770.72;;;36.07;37.85
76095;BME280;64821;13.710;100.604;2023-06-26T02:00:25;100744.56;;;35.88;38.29
76095;BME280;64821;13.710;100.604;2023-06-26T02:01:30;100774.28;;;36.19;37.79
76095;BME280;64821;13.710;100.604;2023-06-26T02:02:35;100739.38;;;35.99;37.90
76095;BME280;64821;13.710;100.604;2023-06-26T02:03:39;100779.50;;;36.21;38.35
76095;BME280;64821;13.710;100.604;2023-06-26T02:04:43;100773.84;;;36.29;37.33
76095;BME280;64821;13.710;100.604;2023-06-26T02:05:47;100774.31;;;36.31;37.68
76095;BME280;64821;13.710;100.604;2023-06-26T02:06:50;100762.47;;;36.31;37.62
76095;BME280;64821;13.710;100.604;2023-06-26T02:07:54;100767.66;;;36.32;37.63
76095;BME280;64821;13.710;100.604;2023-06-26T02:08:58;100768.88;;;36.35;37.26
76095;BME280;64821;13.710;100.604;2023-06-26T02:10:01;100778.22;;;36.30;37.54
76095;BME280;64821;13.710;100.604;2023-06-26T02:11:05;100770.84;;;36.34;37.60
76095;BME280;64821;13.710;100.604;2023-06-26T02:12:11;100765.91;;;36.28;37.56
76095;BME280;64821;13.710;100.604;2023-06-26T02:13:14;100776.00;;;36.36;37.69
76095;BME280;64821;13.710;100.604;2023-06-26T02:14:18;100773.50;;;36.43;37.49
76095;BME280;64821;13.710;100.604;2023-06-26T02:15:22;100770.94;;;36.38;37.53
76095;BME280;64821;13.710;100.604;2023-06-26T02:16:26;100772.44;;;36.48;37.43
76095;BME280;64821;13.710;100.604;2023-06-26T02:17:29;100768.97;;;36.51;37.45
76095;BME280;64821;13.710;100.604;2023-06-26T02:18:33;100757.75;;;36.31;37.39
76095;BME280;64821;13.710;100.604;2023-06-26T02:19:37;100770.25;;;36.41;37.60
76095;BME280;64821;13.710;100.604;2023-06-26T02:20:40;100772.97;;;36.53;37.55
76095;BME280;64821;13.710;100.604;2023-06-26T02:21:44;100774.59;;;36.54;37.30
76095;BME280;64821;13.710;100.604;2023-06-26T02:22:48;100761.50;;;36.51;37.46
76095;BME280;64821;13.710;100.604;2023-06-26T02:23:52;100773.19;;;36.60;37.07
76095;BME280;64821;13.710;100.604;2023-06-26T02:24:55;100766.06;;;36.72;36.98
76095;BME280;64821;13.710;100.604;2023-06-26T02:25:59;100756.38;;;36.65;37.01
76095;BME280;64821;13.710;100.604;2023-06-26T02:27:03;100765.25;;;36.59;37.14
76095;BME280;64821;13.710;100.604;2023-06-26T02:28:09;100764.47;;;36.58;37.41
76095;BME280;64821;13.710;100.604;2023-06-26T02:29:13;100771.78;;;36.66;37.13
76095;BME280;64821;13.710;100.604;2023-06-26T02:30:16;100751.47;;;36.71;37.24
76095;BME280;64821;13.710;100.604;2023-06-26T02:31:20;100758.31;;;36.77;37.07
76095;BME280;64821;13.710;100.604;2023-06-26T02:32:24;100752.97;;;36.68;37.21
76095;BME280;64821;13.710;100.604;2023-06-26T02:33:28;100760.13;;;36.85;36.93
76095;BME280;64821;13.710;100.604;2023-06-26T02:34:31;100767.03;;;36.91;36.57
76095;BME280;64821;13.710;100.604;2023-06-26T02:35:35;100765.66;;;36.85;36.89
76095;BME280;64821;13.710;100.604;2023-06-26T02:36:39;100753.56;;;36.90;36.92
76095;BME280;64821;13.710;100.604;2023-06-26T02:37:43;100755.53;;;36.89;36.92
76095;BME280;64821;13.710;100.604;2023-06-26T02:38:46;100728.91;;;36.69;36.92
76095;BME280;64821;13.710;100.604;2023-06-26T02:39:50;100760.94;;;36.86;37.01
76095;BME280;64821;13.710;100.604;2023-06-26T02:40:54;100774.78;;;36.74;37.11
76095;BME280;64821;13.710;100.604;2023-06-26T02:41:57;100762.94;;;36.73;36.99
76095;BME280;64821;13.710;100.604;2023-06-26T02:43:01;100763.03;;;36.77;37.14
76095;BME280;64821;13.710;100.604;2023-06-26T02:44:06;100752.16;;;36.68;36.54
76095;BME280;64821;13.710;100.604;2023-06-26T02:45:10;100768.38;;;36.69;37.01
76095;BME280;64821;13.710;100.604;2023-06-26T02:46:14;100767.06;;;36.79;37.00
76095;BME280;64821;13.710;100.604;2023-06-26T02:47:18;100758.09;;;36.82;36.79
76095;BME280;64821;13.710;100.604;2023-06-26T02:48:21;100755.75;;;36.84;36.90
76095;BME280;64821;13.710;100.604;2023-06-26T02:49:25;100760.13;;;36.85;36.82
76095;BME280;64821;13.710;100.604;2023-06-26T02:50:29;100735.78;;;36.75;36.83
76095;BME280;64821;13.710;100.604;2023-06-26T02:51:33;100745.78;;;36.80;36.90
76095;BME280;64821;13.710;100.604;2023-06-26T02:52:36;100757.38;;;36.85;36.74
76095;BME280;64821;13.710;100.604;2023-06-26T02:53:40;100756.03;;;36.79;36.87
76095;BME280;64821;13.710;100.604;2023-06-26T02:54:44;100761.75;;;36.86;36.81
76095;BME280;64821;13.710;100.604;2023-06-26T02:55:48;100750.69;;;36.86;36.94
76095;BME280;64821;13.710;100.604;2023-06-26T02:56:51;100753.91;;;36.88;36.61
76095;BME280;64821;13.710;100.604;2023-06-26T02:57:55;100674.59;;;36.45;36.51
76095;BME280;64821;13.710;100.604;2023-06-26T02:58:59;100737.53;;;36.95;36.53
76095;BME280;64821;13.710;100.604;2023-06-26T03:00:05;100737.28;;;37.00;36.27
76095;BME280;64821;13.710;100.604;2023-06-26T03:01:09;100737.25;;;36.85;36.86
76095;BME280;64821;13.710;100.604;2023-06-26T03:02:13;100753.41;;;36.98;36.32
76095;BME280;64821;13.710;100.604;2023-06-26T03:03:16;100745.00;;;36.95;36.26
76095;BME280;64821;13.710;100.604;2023-06-26T03:04:20;100754.03;;;36.92;36.89
76095;BME280;64821;13.710;100.604;2023-06-26T03:05:24;100739.91;;;36.81;36.38
76095;BME280;64821;13.710;100.604;2023-06-26T03:06:28;100767.56;;;36.97;36.59
76095;BME280;64821;13.710;100.604;2023-06-26T03:07:32;100744.47;;;36.89;36.28
76095;BME280;64821;13.710;100.604;2023-06-26T03:08:36;100764.56;;;37.02;36.45
76095;BME280;64821;13.710;100.604;2023-06-26T03:09:40;100738.09;;;37.01;35.84
76095;BME280;64821;13.710;100.604;2023-06-26T03:10:44;100774.50;;;37.19;36.02
76095;BME280;64821;13.710;100.604;2023-06-26T03:11:48;100761.53;;;37.07;36.11
76095;BME280;64821;13.710;100.604;2023-06-26T03:12:51;100770.59;;;37.20;36.26
76095;BME280;64821;13.710;100.604;2023-06-26T03:13:55;100774.16;;;37.20;35.72
76095;BME280;64821;13.710;100.604;2023-06-26T03:14:59;100778.16;;;37.23;36.07
76095;BME280;64821;13.710;100.604;2023-06-26T03:16:04;100779.13;;;37.15;36.26
76095;BME280;64821;13.710;100.604;2023-06-26T03:17:08;100757.03;;;37.15;36.36
76095;BME280;64821;13.710;100.604;2023-06-26T03:18:12;100767.22;;;37.14;36.38
76095;BME280;64821;13.710;100.604;2023-06-26T03:19:16;100764.28;;;37.07;36.25
76095;BME280;64821;13.710;100.604;2023-06-26T03:20:19;100769.47;;;37.09;36.20
76095;BME280;64821;13.710;100.604;2023-06-26T03:21:23;100761.53;;;37.07;36.26
76095;BME280;64821;13.710;100.604;2023-06-26T03:22:27;100771.94;;;37.14;36.57
76095;BME280;64821;13.710;100.604;2023-06-26T03:23:31;100771.91;;;37.26;36.00
76095;BME280;64821;13.710;100.604;2023-06-26T03:24:34;100770.59;;;37.35;35.90
76095;BME280;64821;13.710;100.604;2023-06-26T03:25:38;100770.34;;;37.40;35.76
76095;BME280;64821;13.710;100.604;2023-06-26T03:26:42;100761.06;;;37.33;35.77
76095;BME280;64821;13.710;100.604;2023-06-26T03:27:46;100768.75;;;37.39;35.94
76095;BME280;64821;13.710;100.604;2023-06-26T03:28:49;100773.81;;;37.37;36.10
76095;BME280;64821;13.710;100.604;2023-06-26T03:29:53;100768.22;;;37.50;35.77
76095;BME280;64821;13.710;100.604;2023-06-26T03:30:57;100770.25;;;37.53;35.69
76095;BME280;64821;13.710;100.604;2023-06-26T03:32:02;100773.91;;;37.57;35.72
76095;BME280;64821;13.710;100.604;2023-06-26T03:33:06;100763.03;;;37.48;35.99
76095;BME280;64821;13.710;100.604;2023-06-26T03:34:10;100764.00;;;37.56;35.59
76095;BME280;64821;13.710;100.604;2023-06-26T03:35:14;100766.06;;;37.59;35.67
76095;BME280;64821;13.710;100.604;2023-06-26T03:36:17;100760.53;;;37.59;35.54
76095;BME280;64821;13.710;100.604;2023-06-26T03:37:21;100772.25;;;37.68;35.58
76095;BME280;64821;13.710;100.604;2023-06-26T03:38:25;100746.28;;;37.57;35.54
76095;BME280;64821;13.710;100.604;2023-06-26T03:39:29;100769.22;;;37.73;35.16
76095;BME280;64821;13.710;100.604;2023-06-26T03:40:32;100776.78;;;37.76;35.22
76095;BME280;64821;13.710;100.604;2023-06-26T03:41:36;100773.03;;;37.84;35.22
76095;BME280;64821;13.710;100.604;2023-06-26T03:42:40;100748.25;;;37.72;35.09
76095;BME280;64821;13.710;100.604;2023-06-26T03:43:43;100764.03;;;37.87;34.81
76095;BME280;64821;13.710;100.604;2023-06-26T03:44:47;100771.69;;;37.94;35.32
76095;BME280;64821;13.710;100.604;2023-06-26T03:45:51;100783.56;;;37.94;35.23
76095;BME280;64821;13.710;100.604;2023-06-26T03:46:55;100773.81;;;38.00;35.08
76095;BME280;64821;13.710;100.604;2023-06-26T03:48:00;100772.22;;;37.99;35.28
76095;BME280;64821;13.710;100.604;2023-06-26T03:49:04;100768.72;;;38.02;34.85
76095;BME280;64821;13.710;100.604;2023-06-26T03:50:10;100735.56;;;37.87;34.68
76095;BME280;64821;13.710;100.604;2023-06-26T03:51:14;100740.81;;;37.92;35.09
76095;BME280;64821;13.710;100.604;2023-06-26T03:52:17;100770.50;;;38.10;35.16
76095;BME280;64821;13.710;100.604;2023-06-26T03:53:21;100745.44;;;38.03;34.51
76095;BME280;64821;13.710;100.604;2023-06-26T03:54:25;100770.59;;;38.14;34.81
76095;BME280;64821;13.710;100.604;2023-06-26T03:55:28;100764.19;;;38.10;35.06
76095;BME280;64821;13.710;100.604;2023-06-26T03:56:32;100774.97;;;38.15;35.06
76095;BME280;64821;13.710;100.604;2023-06-26T03:57:36;100773.03;;;38.16;34.69
76095;BME280;64821;13.710;100.604;2023-06-26T03:58:40;100763.56;;;38.17;34.90
76095;BME280;64821;13.710;100.604;2023-06-26T03:59:43;100771.69;;;38.09;35.07
76095;BME280;64821;13.710;100.604;2023-06-26T04:00:47;100761.00;;;38.08;35.16
76095;BME280;64821;13.710;100.604;2023-06-26T04:01:51;100760.50;;;38.06;34.49
76095;BME280;64821;13.710;100.604;2023-06-26T04:02:55;100772.13;;;38.11;34.73
76095;BME280;64821;13.710;100.604;2023-06-26T04:04:00;100765.44;;;38.12;34.51
76095;BME280;64821;13.710;100.604;2023-06-26T04:05:04;100769.44;;;38.15;34.85
76095;BME280;64821;13.710;100.604;2023-06-26T04:06:08;100756.69;;;38.10;34.75
76095;BME280;64821;13.710;100.604;2023-06-26T04:07:12;100733.44;;;37.80;35.17
76095;BME280;64821;13.710;100.604;2023-06-26T04:08:16;100756.06;;;38.01;35.06
76095;BME280;64821;13.710;100.604;2023-06-26T04:09:19;100716.41;;;37.62;34.96
76095;BME280;64821;13.710;100.604;2023-06-26T04:10:23;100758.22;;;37.92;34.87
76095;BME280;64821;13.710;100.604;2023-06-26T04:11:27;100766.09;;;37.90;35.04
76095;BME280;64821;13.710;100.604;2023-06-26T04:12:31;100759.75;;;37.90;34.95
76095;BME280;64821;13.710;100.604;2023-06-26T04:13:35;100756.69;;;37.95;35.22
76095;BME280;64821;13.710;100.604;2023-06-26T04:14:38;100744.59;;;37.84;35.30
76095;BME280;64821;13.710;100.604;2023-06-26T04:15:42;100764.94;;;37.75;35.02
76095;BME280;64821;13.710;100.604;2023-06-26T04:16:46;100716.88;;;37.64;34.60
76095;BME280;64821;13.710;100.604;2023-06-26T04:17:49;100748.00;;;37.77;35.31
76095;BME280;64821;13.710;100.604;2023-06-26T04:18:53;100758.06;;;37.85;34.78
76095;BME280;64821;13.710;100.604;2023-06-26T04:19:58;100756.53;;;37.88;34.72
76095;BME280;64821;13.710;100.604;2023-06-26T04:21:07;100749.31;;;37.83;34.58
76095;BME280;64821;13.710;100.604;2023-06-26T04:22:11;100752.06;;;37.83;34.73
76095;BME280;64821;13.710;100.604;2023-06-26T04:23:14;100730.16;;;37.74;34.74
76095;BME280;64821;13.710;100.604;2023-06-26T04:24:18;100745.28;;;37.81;34.89
76095;BME280;64821;13.710;100.604;2023-06-26T04:25:22;100746.34;;;37.92;34.61
76095;BME280;64821;13.710;100.604;2023-06-26T04:26:25;100757.59;;;37.99;34.62
76095;BME280;64821;13.710;100.604;2023-06-26T04:27:29;100752.22;;;38.06;34.37
76095;BME280;64821;13.710;100.604;2023-06-26T04:28:36;100740.72;;;38.04;34.26
76095;BME280;64821;13.710;100.604;2023-06-26T04:29:40;100742.59;;;38.00;34.55
76095;BME280;64821;13.710;100.604;2023-06-26T04:30:44;100745.72;;;37.98;34.11
76095;BME280;64821;13.710;100.604;2023-06-26T04:31:47;100739.38;;;37.98;34.58
76095;BME280;64821;13.710;100.604;2023-06-26T04:32:51;100746.94;;;38.01;34.06
76095;BME280;64821;13.710;100.604;2023-06-26T04:33:55;100722.63;;;37.91;34.40
76095;BME280;64821;13.710;100.604;2023-06-26T04:35:00;100726.28;;;37.95;34.34
76095;BME280;64821;13.710;100.604;2023-06-26T04:36:04;100745.44;;;38.03;34.48
76095;BME280;64821;13.710;100.604;2023-06-26T04:37:08;100709.72;;;37.79;34.34
76095;BME280;64821;13.710;100.604;2023-06-26T04:38:12;100740.25;;;38.02;34.34
76095;BME280;64821;13.710;100.604;2023-06-26T04:40:36;100753.06;;;38.06;34.14
76095;BME280;64821;13.710;100.604;2023-06-26T04:41:40;100750.72;;;38.08;34.09
76095;BME280;64821;13.710;100.604;2023-06-26T04:42:44;100752.69;;;38.08;34.23
76095;BME280;64821;13.710;100.604;2023-06-26T04:43:47;100740.03;;;38.07;34.31
76095;BME280;64821;13.710;100.604;2023-06-26T04:44:51;100757.66;;;38.18;34.14
76095;BME280;64821;13.710;100.604;2023-06-26T04:45:55;100741.50;;;38.04;33.91
76095;BME280;64821;13.710;100.604;2023-06-26T04:46:59;100752.19;;;38.22;34.26
76095;BME280;64821;13.710;100.604;2023-06-26T04:48:03;100749.53;;;38.25;33.82
76095;BME280;64821;13.710;100.604;2023-06-26T04:49:07;100751.81;;;38.39;33.85
76095;BME280;64821;13.710;100.604;2023-06-26T04:50:13;100749.97;;;38.46;33.55
76095;BME280;64821;13.710;100.604;2023-06-26T04:51:17;100734.22;;;38.50;33.80
76095;BME280;64821;13.710;100.604;2023-06-26T04:52:20;100739.22;;;38.61;33.55
76095;BME280;64821;13.710;100.604;2023-06-26T04:53:25;100726.59;;;38.44;33.52
76095;BME280;64821;13.710;100.604;2023-06-26T04:54:28;100734.56;;;38.65;33.84
76095;BME280;64821;13.710;100.604;2023-06-26T04:55:32;100723.03;;;38.63;32.67
76095;BME280;64821;13.710;100.604;2023-06-26T04:56:36;100741.94;;;38.76;33.62
76095;BME280;64821;13.710;100.604;2023-06-26T04:57:40;100728.28;;;38.87;33.00
76095;BME280;64821;13.710;100.604;2023-06-26T04:58:44;100737.53;;;38.95;33.13
76095;BME280;64821;13.710;100.604;2023-06-26T04:59:48;100734.47;;;39.00;32.97
76095;BME280;64821;13.710;100.604;2023-06-26T05:00:52;100736.81;;;38.98;33.56
76095;BME280;64821;13.710;100.604;2023-06-26T05:01:55;100734.84;;;38.98;32.94
76095;BME280;64821;13.710;100.604;2023-06-26T05:02:59;100716.53;;;38.94;33.48
76095;BME280;64821;13.710;100.604;2023-06-26T05:04:03;100728.47;;;39.17;32.84
76095;BME280;64821;13.710;100.604;2023-06-26T05:05:08;100727.91;;;39.31;32.55
76095;BME280;64821;13.710;100.604;2023-06-26T05:06:13;100716.53;;;39.36;31.59
76095;BME280;64821;13.710;100.604;2023-06-26T05:07:17;100721.38;;;39.19;32.33
76095;BME280;64821;13.710;100.604;2023-06-26T05:08:22;100708.75;;;39.22;32.95
76095;BME280;64821;13.710;100.604;2023-06-26T05:09:26;100724.94;;;39.20;32.38
76095;BME280;64821;13.710;100.604;2023-06-26T05:10:30;100704.75;;;39.19;32.82
76095;BME280;64821;13.710;100.604;2023-06-26T05:11:33;100716.16;;;39.14;32.40
76095;BME280;64821;13.710;100.604;2023-06-26T05:12:37;100714.22;;;39.18;32.31
76095;BME280;64821;13.710;100.604;2023-06-26T05:13:41;100705.09;;;39.18;32.67
76095;BME280;64821;13.710;100.604;2023-06-26T05:14:45;100719.22;;;39.32;32.23
76095;BME280;64821;13.710;100.604;2023-06-26T05:15:49;100706.00;;;39.45;32.03
76095;BME280;64821;13.710;100.604;2023-06-26T05:16:53;100709.00;;;39.59;31.84
76095;BME280;64821;13.710;100.604;2023-06-26T05:17:56;100709.59;;;39.72;31.60
76095;BME280;64821;13.710;100.604;2023-06-26T05:19:00;100693.91;;;39.83;31.73
76095;BME280;64821;13.710;100.604;2023-06-26T05:20:05;100682.09;;;39.86;31.31
76095;BME280;64821;13.710;100.604;2023-06-26T05:21:09;100695.34;;;40.00;31.94
76095;BME280;64821;13.710;100.604;2023-06-26T05:22:15;100698.66;;;40.09;31.45
76095;BME280;64821;13.710;100.604;2023-06-26T05:23:20;100696.44;;;40.21;31.30
76095;BME280;64821;13.710;100.604;2023-06-26T05:24:24;100689.25;;;40.17;31.05
76095;BME280;64821;13.710;100.604;2023-06-26T05:25:29;100679.72;;;40.14;31.34
76095;BME280;64821;13.710;100.604;2023-06-26T05:26:33;100672.44;;;40.06;31.17
76095;BME280;64821;13.710;100.604;2023-06-26T05:27:38;100689.75;;;39.96;31.46
76095;BME280;64821;13.710;100.604;2023-06-26T05:28:42;100688.44;;;39.86;31.80
76095;BME280;64821;13.710;100.604;2023-06-26T05:29:47;100681.88;;;39.72;31.99